sensor_id;sensor_type;location;lat;lon;timestamp;temperature;humidity
24636;DHT22;12772;49.794;10.024;2023-12-20T00:02:32;7.70;77.60
24636;DHT22;12772;49.794;10.024;2023-12-20T00:06:35;7.70;77.90
24636;DHT22;12772;49.794;10.024;2023-12-20T00:10:37;7.30;77.60
24636;DHT22;12772;49.794;10.024;2023-12-20T00:14:39;7.70;78.00
24636;DHT22;12772;49.794;10.024;2023-12-20T00:18:41;7.70;78.20
24636;DHT22;12772;49.794;10.024;2023-12-20T00:22:43;7.80;78.10
24636;DHT22;12772;49.794;10.024;2023-12-20T00:26:45;7.80;78.00
24636;DHT22;12772;49.794;10.024;2023-12-20T00:30:47;7.40;77.50
24636;DHT22;12772;49.794;10.024;2023-12-20T00:34:49;7.80;77.90
24636;DHT22;12772;49.794;10.024;2023-12-20T00:38:51;8.00;78.10
24636;DHT22;12772;49.794;10.024;2023-12-20T00:42:53;7.90;78.00
24636;DHT22;12772;49.794;10.024;2023-12-20T00:46:55;7.50;77.80
24636;DHT22;12772;49.794;10.024;2023-12-20T00:50:57;7.80;78.00
24636;DHT22;12772;49.794;10.024;2023-12-20T00:54:59;7.80;77.90
24636;DHT22;12772;49.794;10.024;2023-12-20T00:59:01;7.80;77.80
24636;DHT22;12772;49.794;10.024;2023-12-20T01:03:03;8.10;77.90
24636;DHT22;12772;49.794;10.024;2023-12-20T01:07:05;8.00;77.80
24636;DHT22;12772;49.794;10.024;2023-12-20T01:11:07;7.70;77.90
24636;DHT22;12772;49.794;10.024;2023-12-20T01:15:09;7.80;77.30
24636;DHT22;12772;49.794;10.024;2023-12-20T01:19:13;8.00;77.30
24636;DHT22;12772;49.794;10.024;2023-12-20T01:23:15;7.80;77.00
24636;DHT22;12772;49.794;10.024;2023-12-20T01:27:17;8.10;77.20
24636;DHT22;12772;49.794;10.024;2023-12-20T01:31:19;7.80;77.00
24636;DHT22;12772;49.794;10.024;2023-12-20T01:35:21;7.80;76.80
24636;DHT22;12772;49.794;10.024;2023-12-20T01:39:23;8.00;77.00
24636;DHT22;12772;49.794;10.024;2023-12-20T01:43:25;8.00;76.90
24636;DHT22;12772;49.794;10.024;2023-12-20T01:47:28;7.70;76.50
24636;DHT22;12772;49.794;10.024;2023-12-20T01:51:30;8.10;76.60
24636;DHT22;12772;49.794;10.024;2023-12-20T01:55:35;7.80;75.80
24636;DHT22;12772;49.794;10.024;2023-12-20T01:59:39;7.80;75.70
24636;DHT22;12772;49.794;10.024;2023-12-20T02:03:42;7.90;75.80
24636;DHT22;12772;49.794;10.024;2023-12-20T02:07:44;7.70;75.40
24636;DHT22;12772;49.794;10.024;2023-12-20T02:11:46;7.40;75.30
24636;DHT22;12772;49.794;10.024;2023-12-20T02:15:48;7.80;75.50
24636;DHT22;12772;49.794;10.024;2023-12-20T02:19:50;7.60;75.40
24636;DHT22;12772;49.794;10.024;2023-12-20T02:23:52;7.80;75.70
24636;DHT22;12772;49.794;10.024;2023-12-20T02:27:54;7.80;75.40
24636;DHT22;12772;49.794;10.024;2023-12-20T02:31:56;7.60;75.30
24636;DHT22;12772;49.794;10.024;2023-12-20T02:35:58;7.30;75.10
24636;DHT22;12772;49.794;10.024;2023-12-20T02:40:00;7.70;75.30
24636;DHT22;12772;49.794;10.024;2023-12-20T02:44:03;7.60;75.40
24636;DHT22;12772;49.794;10.024;2023-12-20T02:48:05;7.50;75.50
24636;DHT22;12772;49.794;10.024;2023-12-20T02:52:07;7.60;75.60
24636;DHT22;12772;49.794;10.024;2023-12-20T02:56:09;7.60;75.50
24636;DHT22;12772;49.794;10.024;2023-12-20T03:00:12;7.20;75.20
24636;DHT22;12772;49.794;10.024;2023-12-20T03:04:14;7.50;75.40
24636;DHT22;12772;49.794;10.024;2023-12-20T03:08:16;7.00;75.00
24636;DHT22;12772;49.794;10.024;2023-12-20T03:12:18;7.40;75.10
24636;DHT22;12772;49.794;10.024;2023-12-20T03:16:20;7.20;75.10
24636;DHT22;12772;49.794;10.024;2023-12-20T03:20:22;7.00;75.10
24636;DHT22;12772;49.794;10.024;2023-12-20T03:24:24;7.30;75.30
24636;DHT22;12772;49.794;10.024;2023-12-20T03:28:27;7.50;75.40
24636;DHT22;12772;49.794;10.024;2023-12-20T03:32:29;7.00;75.00
24636;DHT22;12772;49.794;10.024;2023-12-20T03:36:31;7.40;75.10
24636;DHT22;12772;49.794;10.024;2023-12-20T03:40:33;7.00;75.10
24636;DHT22;12772;49.794;10.024;2023-12-20T03:44:38;7.40;75.30
24636;DHT22;12772;49.794;10.024;2023-12-20T03:48:40;7.30;75.30
24636;DHT22;12772;49.794;10.024;2023-12-20T03:52:42;7.40;75.60
24636;DHT22;12772;49.794;10.024;2023-12-20T03:56:44;7.40;75.20
24636;DHT22;12772;49.794;10.024;2023-12-20T04:00:46;7.40;75.40
24636;DHT22;12772;49.794;10.024;2023-12-20T04:04:48;7.40;75.30
24636;DHT22;12772;49.794;10.024;2023-12-20T04:08:50;7.40;75.50
24636;DHT22;12772;49.794;10.024;2023-12-20T04:12:53;7.40;75.30
24636;DHT22;12772;49.794;10.024;2023-12-20T04:16:56;7.30;75.30
24636;DHT22;12772;49.794;10.024;2023-12-20T04:20:58;7.20;75.60
24636;DHT22;12772;49.794;10.024;2023-12-20T04:25:00;6.80;75.20
24636;DHT22;12772;49.794;10.024;2023-12-20T04:29:02;7.30;75.70
24636;DHT22;12772;49.794;10.024;2023-12-20T04:33:04;7.40;75.90
24636;DHT22;12772;49.794;10.024;2023-12-20T04:37:06;7.30;75.70
24636;DHT22;12772;49.794;10.024;2023-12-20T04:41:08;7.40;75.80
24636;DHT22;12772;49.794;10.024;2023-12-20T04:45:10;7.50;75.60
24636;DHT22;12772;49.794;10.024;2023-12-20T04:49:13;6.90;75.20
24636;DHT22;12772;49.794;10.024;2023-12-20T04:53:15;7.40;75.60
24636;DHT22;12772;49.794;10.024;2023-12-20T04:57:17;7.40;75.80
24636;DHT22;12772;49.794;10.024;2023-12-20T05:01:19;7.40;75.90
24636;DHT22;12772;49.794;10.024;2023-12-20T05:05:22;7.60;75.80
24636;DHT22;12772;49.794;10.024;2023-12-20T05:09:24;7.50;75.70
24636;DHT22;12772;49.794;10.024;2023-12-20T05:13:26;7.50;75.50
24636;DHT22;12772;49.794;10.024;2023-12-20T05:17:28;7.60;75.50
24636;DHT22;12772;49.794;10.024;2023-12-20T05:21:30;7.50;75.40
24636;DHT22;12772;49.794;10.024;2023-12-20T05:25:32;7.60;75.30
24636;DHT22;12772;49.794;10.024;2023-12-20T05:29:34;7.60;75.20
24636;DHT22;12772;49.794;10.024;2023-12-20T05:33:36;7.10;74.90
24636;DHT22;12772;49.794;10.024;2023-12-20T05:37:38;7.10;75.10
24636;DHT22;12772;49.794;10.024;2023-12-20T05:41:40;7.50;75.40
24636;DHT22;12772;49.794;10.024;2023-12-20T05:45:42;7.60;76.10
24636;DHT22;12772;49.794;10.024;2023-12-20T05:49:45;7.70;75.90
24636;DHT22;12772;49.794;10.024;2023-12-20T05:53:47;7.60;76.40
24636;DHT22;12772;49.794;10.024;2023-12-20T05:57:50;7.90;76.30
24636;DHT22;12772;49.794;10.024;2023-12-20T06:01:52;7.40;76.20
24636;DHT22;12772;49.794;10.024;2023-12-20T06:05:54;7.70;77.00
24636;DHT22;12772;49.794;10.024;2023-12-20T06:09:57;7.20;76.80
24636;DHT22;12772;49.794;10.024;2023-12-20T06:13:59;7.30;77.30
24636;DHT22;12772;49.794;10.024;2023-12-20T06:18:01;7.60;77.80
24636;DHT22;12772;49.794;10.024;2023-12-20T06:22:03;7.70;77.90
24636;DHT22;12772;49.794;10.024;2023-12-20T06:26:05;7.70;78.20
24636;DHT22;12772;49.794;10.024;2023-12-20T06:30:07;7.70;78.20
24636;DHT22;12772;49.794;10.024;2023-12-20T06:34:10;7.60;78.30
24636;DHT22;12772;49.794;10.024;2023-12-20T06:38:12;7.70;78.40
24636;DHT22;12772;49.794;10.024;2023-12-20T06:42:14;7.70;78.50
24636;DHT22;12772;49.794;10.024;2023-12-20T06:46:16;7.40;78.20
24636;DHT22;12772;49.794;10.024;2023-12-20T06:50:18;7.70;78.40
24636;DHT22;12772;49.794;10.024;2023-12-20T06:54:20;7.80;78.50
24636;DHT22;12772;49.794;10.024;2023-12-20T06:58:22;7.70;78.40
24636;DHT22;12772;49.794;10.024;2023-12-20T07:02:24;7.40;78.20
24636;DHT22;12772;49.794;10.024;2023-12-20T07:06:26;7.30;78.10
24636;DHT22;12772;49.794;10.024;2023-12-20T07:10:28;8.00;78.60
24636;DHT22;12772;49.794;10.024;2023-12-20T07:14:30;7.80;78.50
24636;DHT22;12772;49.794;10.024;2023-12-20T07:18:32;7.40;78.20
24636;DHT22;12772;49.794;10.024;2023-12-20T07:22:34;7.70;78.40
24636;DHT22;12772;49.794;10.024;2023-12-20T07:26:36;7.90;78.50
24636;DHT22;12772;49.794;10.024;2023-12-20T07:30:40;7.70;78.10
24636;DHT22;12772;49.794;10.024;2023-12-20T07:34:42;7.90;78.10
24636;DHT22;12772;49.794;10.024;2023-12-20T07:38:44;7.50;77.80
24636;DHT22;12772;49.794;10.024;2023-12-20T07:42:46;7.90;77.40
24636;DHT22;12772;49.794;10.024;2023-12-20T07:46:48;7.90;76.80
24636;DHT22;12772;49.794;10.024;2023-12-20T07:50:50;7.90;76.10
24636;DHT22;12772;49.794;10.024;2023-12-20T07:54:53;8.00;76.10
24636;DHT22;12772;49.794;10.024;2023-12-20T07:58:55;7.40;75.20
24636;DHT22;12772;49.794;10.024;2023-12-20T08:02:57;7.70;74.70
24636;DHT22;12772;49.794;10.024;2023-12-20T08:06:59;7.50;74.50
24636;DHT22;12772;49.794;10.024;2023-12-20T08:11:02;7.50;73.90
24636;DHT22;12772;49.794;10.024;2023-12-20T08:15:04;8.00;74.50
24636;DHT22;12772;49.794;10.024;2023-12-20T08:19:06;7.70;74.30
24636;DHT22;12772;49.794;10.024;2023-12-20T08:23:08;7.80;74.40
24636;DHT22;12772;49.794;10.024;2023-12-20T08:27:10;7.80;73.90
24636;DHT22;12772;49.794;10.024;2023-12-20T08:31:18;7.60;73.30
24636;DHT22;12772;49.794;10.024;2023-12-20T08:35:21;7.60;72.90
24636;DHT22;12772;49.794;10.024;2023-12-20T08:39:24;7.90;72.90
24636;DHT22;12772;49.794;10.024;2023-12-20T08:43:26;7.70;71.80
24636;DHT22;12772;49.794;10.024;2023-12-20T08:47:28;7.70;71.60
24636;DHT22;12772;49.794;10.024;2023-12-20T08:51:30;7.40;71.70
24636;DHT22;12772;49.794;10.024;2023-12-20T08:55:32;7.70;72.10
24636;DHT22;12772;49.794;10.024;2023-12-20T08:59:34;7.70;71.90
24636;DHT22;12772;49.794;10.024;2023-12-20T09:03:36;7.40;71.60
24636;DHT22;12772;49.794;10.024;2023-12-20T09:07:38;7.80;72.00
24636;DHT22;12772;49.794;10.024;2023-12-20T09:11:40;7.90;71.60
24636;DHT22;12772;49.794;10.024;2023-12-20T09:15:43;7.80;70.90
24636;DHT22;12772;49.794;10.024;2023-12-20T09:19:45;8.00;69.90
24636;DHT22;12772;49.794;10.024;2023-12-20T09:23:47;8.00;70.10
24636;DHT22;12772;49.794;10.024;2023-12-20T09:27:50;7.70;69.60
24636;DHT22;12772;49.794;10.024;2023-12-20T09:31:53;8.00;69.70
24636;DHT22;12772;49.794;10.024;2023-12-20T09:35:55;8.00;68.50
24636;DHT22;12772;49.794;10.024;2023-12-20T09:39:57;7.70;68.30
24636;DHT22;12772;49.794;10.024;2023-12-20T09:44:02;7.60;68.10
24636;DHT22;12772;49.794;10.024;2023-12-20T09:48:04;7.90;68.40
24636;DHT22;12772;49.794;10.024;2023-12-20T09:52:07;8.20;68.60
24636;DHT22;12772;49.794;10.024;2023-12-20T09:56:11;7.90;67.20
24636;DHT22;12772;49.794;10.024;2023-12-20T10:00:14;8.70;67.30
24636;DHT22;12772;49.794;10.024;2023-12-20T10:04:17;8.50;67.20
24636;DHT22;12772;49.794;10.024;2023-12-20T10:08:21;8.50;66.40
24636;DHT22;12772;49.794;10.024;2023-12-20T10:12:23;8.60;66.40
24636;DHT22;12772;49.794;10.024;2023-12-20T10:16:25;8.30;66.10
24636;DHT22;12772;49.794;10.024;2023-12-20T10:20:28;8.40;65.40
24636;DHT22;12772;49.794;10.024;2023-12-20T10:24:31;8.70;65.30
24636;DHT22;12772;49.794;10.024;2023-12-20T10:28:34;8.40;64.70
24636;DHT22;12772;49.794;10.024;2023-12-20T10:32:36;8.70;64.80
24636;DHT22;12772;49.794;10.024;2023-12-20T10:36:38;8.50;64.10
24636;DHT22;12772;49.794;10.024;2023-12-20T10:40:40;8.70;64.60
24636;DHT22;12772;49.794;10.024;2023-12-20T10:44:42;8.90;64.60
24636;DHT22;12772;49.794;10.024;2023-12-20T10:48:45;8.60;64.00
24636;DHT22;12772;49.794;10.024;2023-12-20T10:52:49;8.70;63.90
24636;DHT22;12772;49.794;10.024;2023-12-20T10:56:57;8.70;63.60
24636;DHT22;12772;49.794;10.024;2023-12-20T11:01:01;8.70;63.80
24636;DHT22;12772;49.794;10.024;2023-12-20T11:09:38;8.70;63.50
24636;DHT22;12772;49.794;10.024;2023-12-20T11:13:53;8.40;63.80
24636;DHT22;12772;49.794;10.024;2023-12-20T11:17:56;8.70;63.70
24636;DHT22;12772;49.794;10.024;2023-12-20T11:21:59;8.40;63.40
24636;DHT22;12772;49.794;10.024;2023-12-20T11:26:01;8.60;64.20
24636;DHT22;12772;49.794;10.024;2023-12-20T11:30:04;8.20;64.50
24636;DHT22;12772;49.794;10.024;2023-12-20T11:34:14;8.80;65.30
24636;DHT22;12772;49.794;10.024;2023-12-20T11:38:16;8.20;64.50
24636;DHT22;12772;49.794;10.024;2023-12-20T11:42:18;8.50;64.50
24636;DHT22;12772;49.794;10.024;2023-12-20T11:46:21;8.10;64.00
24636;DHT22;12772;49.794;10.024;2023-12-20T11:50:24;8.10;63.70
24636;DHT22;12772;49.794;10.024;2023-12-20T11:54:27;8.60;63.60
24636;DHT22;12772;49.794;10.024;2023-12-20T11:58:29;8.30;63.50
24636;DHT22;12772;49.794;10.024;2023-12-20T12:02:31;8.30;63.30
24636;DHT22;12772;49.794;10.024;2023-12-20T12:06:34;8.50;63.00
24636;DHT22;12772;49.794;10.024;2023-12-20T12:10:36;8.20;62.70
24636;DHT22;12772;49.794;10.024;2023-12-20T12:14:38;8.60;62.80
24636;DHT22;12772;49.794;10.024;2023-12-20T12:18:41;8.70;62.40
24636;DHT22;12772;49.794;10.024;2023-12-20T12:22:43;8.20;61.20
24636;DHT22;12772;49.794;10.024;2023-12-20T12:26:53;8.60;61.40
24636;DHT22;12772;49.794;10.024;2023-12-20T12:30:59;8.70;60.70
24636;DHT22;12772;49.794;10.024;2023-12-20T12:35:04;8.70;60.70
24636;DHT22;12772;49.794;10.024;2023-12-20T12:39:07;8.80;60.40
24636;DHT22;12772;49.794;10.024;2023-12-20T12:43:09;8.80;60.30
24636;DHT22;12772;49.794;10.024;2023-12-20T12:47:11;9.00;59.70
24636;DHT22;12772;49.794;10.024;2023-12-20T12:51:13;8.70;59.00
24636;DHT22;12772;49.794;10.024;2023-12-20T12:55:15;8.30;57.60
24636;DHT22;12772;49.794;10.024;2023-12-20T12:59:17;8.40;57.30
24636;DHT22;12772;49.794;10.024;2023-12-20T13:03:19;8.30;57.80
24636;DHT22;12772;49.794;10.024;2023-12-20T13:07:21;8.30;57.90
24636;DHT22;12772;49.794;10.024;2023-12-20T13:11:23;8.30;57.70
24636;DHT22;12772;49.794;10.024;2023-12-20T13:15:26;8.60;58.10
24636;DHT22;12772;49.794;10.024;2023-12-20T13:19:28;8.50;58.30
24636;DHT22;12772;49.794;10.024;2023-12-20T13:23:31;8.50;58.50
24636;DHT22;12772;49.794;10.024;2023-12-20T13:27:33;8.40;58.70
24636;DHT22;12772;49.794;10.024;2023-12-20T13:31:35;8.50;58.90
24636;DHT22;12772;49.794;10.024;2023-12-20T13:35:37;8.20;59.10
24636;DHT22;12772;49.794;10.024;2023-12-20T13:39:40;8.50;59.00
24636;DHT22;12772;49.794;10.024;2023-12-20T13:43:42;8.40;59.00
24636;DHT22;12772;49.794;10.024;2023-12-20T13:47:44;8.40;58.90
24636;DHT22;12772;49.794;10.024;2023-12-20T13:51:46;8.40;58.80
24636;DHT22;12772;49.794;10.024;2023-12-20T13:55:48;8.10;58.40
24636;DHT22;12772;49.794;10.024;2023-12-20T13:59:50;8.00;58.60
24636;DHT22;12772;49.794;10.024;2023-12-20T14:03:52;8.10;58.80
24636;DHT22;12772;49.794;10.024;2023-12-20T14:07:54;8.20;59.30
24636;DHT22;12772;49.794;10.024;2023-12-20T14:11:58;8.10;59.40
24636;DHT22;12772;49.794;10.024;2023-12-20T14:16:00;8.70;59.90
24636;DHT22;12772;49.794;10.024;2023-12-20T14:20:03;8.10;59.40
24636;DHT22;12772;49.794;10.024;2023-12-20T14:24:06;8.40;59.70
24636;DHT22;12772;49.794;10.024;2023-12-20T14:28:08;8.50;59.90
24636;DHT22;12772;49.794;10.024;2023-12-20T14:32:10;8.60;60.10
24636;DHT22;12772;49.794;10.024;2023-12-20T14:36:14;8.30;59.70
24636;DHT22;12772;49.794;10.024;2023-12-20T14:40:19;8.20;59.40
24636;DHT22;12772;49.794;10.024;2023-12-20T14:44:21;8.30;59.50
24636;DHT22;12772;49.794;10.024;2023-12-20T14:48:23;8.50;59.80
24636;DHT22;12772;49.794;10.024;2023-12-20T14:52:25;8.20;59.20
24636;DHT22;12772;49.794;10.024;2023-12-20T14:56:27;8.40;59.40
24636;DHT22;12772;49.794;10.024;2023-12-20T15:00:29;8.60;59.70
24636;DHT22;12772;49.794;10.024;2023-12-20T15:04:31;8.10;59.40
24636;DHT22;12772;49.794;10.024;2023-12-20T15:08:33;8.40;60.00
24636;DHT22;12772;49.794;10.024;2023-12-20T15:12:36;8.40;59.90
24636;DHT22;12772;49.794;10.024;2023-12-20T15:16:38;8.50;60.10
24636;DHT22;12772;49.794;10.024;2023-12-20T15:20:40;8.40;59.80
24636;DHT22;12772;49.794;10.024;2023-12-20T15:24:44;8.10;59.60
24636;DHT22;12772;49.794;10.024;2023-12-20T15:28:47;8.50;60.20
24636;DHT22;12772;49.794;10.024;2023-12-20T15:32:49;8.40;60.20
24636;DHT22;12772;49.794;10.024;2023-12-20T15:36:51;8.40;60.10
24636;DHT22;12772;49.794;10.024;2023-12-20T15:40:53;8.50;60.10
24636;DHT22;12772;49.794;10.024;2023-12-20T15:44:55;8.40;60.00
24636;DHT22;12772;49.794;10.024;2023-12-20T15:48:57;8.00;59.50
24636;DHT22;12772;49.794;10.024;2023-12-20T15:52:59;8.30;60.20
24636;DHT22;12772;49.794;10.024;2023-12-20T15:57:01;8.00;59.90
24636;DHT22;12772;49.794;10.024;2023-12-20T16:01:03;8.30;60.10
24636;DHT22;12772;49.794;10.024;2023-12-20T16:05:06;8.20;60.20
24636;DHT22;12772;49.794;10.024;2023-12-20T16:09:08;8.30;59.90
24636;DHT22;12772;49.794;10.024;2023-12-20T16:13:10;8.10;59.80
24636;DHT22;12772;49.794;10.024;2023-12-20T16:17:12;8.50;60.20
24636;DHT22;12772;49.794;10.024;2023-12-20T16:21:14;8.20;60.30
24636;DHT22;12772;49.794;10.024;2023-12-20T16:25:16;8.30;60.40
24636;DHT22;12772;49.794;10.024;2023-12-20T16:29:18;8.30;60.30
24636;DHT22;12772;49.794;10.024;2023-12-20T16:33:20;8.30;60.40
24636;DHT22;12772;49.794;10.024;2023-12-20T16:37:23;8.40;60.50
24636;DHT22;12772;49.794;10.024;2023-12-20T16:41:25;8.30;60.40
24636;DHT22;12772;49.794;10.024;2023-12-20T16:45:27;8.20;60.30
24636;DHT22;12772;49.794;10.024;2023-12-20T16:49:29;7.80;60.20
24636;DHT22;12772;49.794;10.024;2023-12-20T16:53:31;8.30;60.70
24636;DHT22;12772;49.794;10.024;2023-12-20T16:57:32;8.00;60.60
24636;DHT22;12772;49.794;10.024;2023-12-20T17:01:35;8.40;60.80
24636;DHT22;12772;49.794;10.024;2023-12-20T17:05:37;8.20;60.70
24636;DHT22;12772;49.794;10.024;2023-12-20T17:09:39;8.30;60.80
24636;DHT22;12772;49.794;10.024;2023-12-20T17:13:41;8.00;60.70
24636;DHT22;12772;49.794;10.024;2023-12-20T17:17:43;8.20;61.10
24636;DHT22;12772;49.794;10.024;2023-12-20T17:21:45;7.90;61.40
24636;DHT22;12772;49.794;10.024;2023-12-20T17:25:53;8.20;61.80
24636;DHT22;12772;49.794;10.024;2023-12-20T17:29:55;7.70;61.50
24636;DHT22;12772;49.794;10.024;2023-12-20T17:33:57;8.20;62.00
24636;DHT22;12772;49.794;10.024;2023-12-20T17:37:59;8.00;62.20
24636;DHT22;12772;49.794;10.024;2023-12-20T17:42:01;8.10;62.70
24636;DHT22;12772;49.794;10.024;2023-12-20T17:46:03;8.10;63.00
24636;DHT22;12772;49.794;10.024;2023-12-20T17:50:06;8.10;63.40
24636;DHT22;12772;49.794;10.024;2023-12-20T17:54:08;8.00;64.00
24636;DHT22;12772;49.794;10.024;2023-12-20T17:58:10;8.00;64.60
24636;DHT22;12772;49.794;10.024;2023-12-20T18:02:12;8.00;65.10
24636;DHT22;12772;49.794;10.024;2023-12-20T18:06:14;8.00;65.80
24636;DHT22;12772;49.794;10.024;2023-12-20T18:10:16;7.70;65.80
24636;DHT22;12772;49.794;10.024;2023-12-20T18:14:18;8.20;66.20
24636;DHT22;12772;49.794;10.024;2023-12-20T18:18:21;7.80;66.70
24636;DHT22;12772;49.794;10.024;2023-12-20T18:22:23;7.50;67.00
24636;DHT22;12772;49.794;10.024;2023-12-20T18:26:25;7.70;68.10
24636;DHT22;12772;49.794;10.024;2023-12-20T18:30:27;7.80;68.50
24636;DHT22;12772;49.794;10.024;2023-12-20T18:34:29;7.80;68.80
24636;DHT22;12772;49.794;10.024;2023-12-20T18:38:34;7.90;69.20
24636;DHT22;12772;49.794;10.024;2023-12-20T18:42:36;7.40;69.40
24636;DHT22;12772;49.794;10.024;2023-12-20T18:46:38;7.30;69.60
24636;DHT22;12772;49.794;10.024;2023-12-20T18:50:40;7.40;69.90
24636;DHT22;12772;49.794;10.024;2023-12-20T18:54:42;7.90;70.20
24636;DHT22;12772;49.794;10.024;2023-12-20T18:58:44;7.80;70.20
24636;DHT22;12772;49.794;10.024;2023-12-20T19:02:47;7.80;70.20
24636;DHT22;12772;49.794;10.024;2023-12-20T19:06:49;7.70;70.50
24636;DHT22;12772;49.794;10.024;2023-12-20T19:10:57;7.80;70.80
24636;DHT22;12772;49.794;10.024;2023-12-20T19:14:59;7.80;71.20
24636;DHT22;12772;49.794;10.024;2023-12-20T19:19:01;7.70;71.70
24636;DHT22;12772;49.794;10.024;2023-12-20T19:23:03;7.40;72.50
24636;DHT22;12772;49.794;10.024;2023-12-20T19:27:05;7.80;73.10
24636;DHT22;12772;49.794;10.024;2023-12-20T19:31:08;7.90;73.40
24636;DHT22;12772;49.794;10.024;2023-12-20T19:35:12;7.30;73.10
24636;DHT22;12772;49.794;10.024;2023-12-20T19:39:14;7.70;73.40
24636;DHT22;12772;49.794;10.024;2023-12-20T19:43:16;7.40;73.30
24636;DHT22;12772;49.794;10.024;2023-12-20T19:47:18;7.90;74.00
24636;DHT22;12772;49.794;10.024;2023-12-20T19:51:20;8.00;73.90
24636;DHT22;12772;49.794;10.024;2023-12-20T19:55:24;7.90;73.90
24636;DHT22;12772;49.794;10.024;2023-12-20T19:59:25;7.40;73.60
24636;DHT22;12772;49.794;10.024;2023-12-20T20:03:27;8.00;74.20
24636;DHT22;12772;49.794;10.024;2023-12-20T20:07:29;7.90;74.40
24636;DHT22;12772;49.794;10.024;2023-12-20T20:11:31;7.80;74.10
24636;DHT22;12772;49.794;10.024;2023-12-20T20:15:33;7.40;74.10
24636;DHT22;12772;49.794;10.024;2023-12-20T20:19:35;7.70;74.20
24636;DHT22;12772;49.794;10.024;2023-12-20T20:23:37;7.90;74.40
24636;DHT22;12772;49.794;10.024;2023-12-20T20:27:39;7.70;74.30
24636;DHT22;12772;49.794;10.024;2023-12-20T20:31:41;7.30;74.50
24636;DHT22;12772;49.794;10.024;2023-12-20T20:35:43;7.70;74.30
24636;DHT22;12772;49.794;10.024;2023-12-20T20:39:45;7.20;74.30
24636;DHT22;12772;49.794;10.024;2023-12-20T20:43:47;7.20;74.10
24636;DHT22;12772;49.794;10.024;2023-12-20T20:47:50;7.70;74.50
24636;DHT22;12772;49.794;10.024;2023-12-20T20:51:52;7.90;74.50
24636;DHT22;12772;49.794;10.024;2023-12-20T20:55:54;7.60;74.60
24636;DHT22;12772;49.794;10.024;2023-12-20T20:59:56;7.30;74.50
24636;DHT22;12772;49.794;10.024;2023-12-20T21:04:01;7.60;75.20
24636;DHT22;12772;49.794;10.024;2023-12-20T21:08:03;7.10;75.10
24636;DHT22;12772;49.794;10.024;2023-12-20T21:12:05;7.60;75.90
24636;DHT22;12772;49.794;10.024;2023-12-20T21:16:07;7.60;76.50
24636;DHT22;12772;49.794;10.024;2023-12-20T21:20:12;7.60;76.40
24636;DHT22;12772;49.794;10.024;2023-12-20T21:24:14;7.30;76.20
24636;DHT22;12772;49.794;10.024;2023-12-20T21:28:16;7.30;76.10
24636;DHT22;12772;49.794;10.024;2023-12-20T21:32:19;7.80;76.30
24636;DHT22;12772;49.794;10.024;2023-12-20T21:36:22;7.60;75.90
24636;DHT22;12772;49.794;10.024;2023-12-20T21:40:24;7.70;76.00
24636;DHT22;12772;49.794;10.024;2023-12-20T21:44:27;7.80;76.00
24636;DHT22;12772;49.794;10.024;2023-12-20T21:48:29;7.60;76.10
24636;DHT22;12772;49.794;10.024;2023-12-20T21:52:31;7.70;76.40
24636;DHT22;12772;49.794;10.024;2023-12-20T21:56:33;7.50;76.30
24636;DHT22;12772;49.794;10.024;2023-12-20T22:00:37;7.70;76.30
24636;DHT22;12772;49.794;10.024;2023-12-20T22:04:39;7.80;76.40
24636;DHT22;12772;49.794;10.024;2023-12-20T22:08:41;7.60;76.30
24636;DHT22;12772;49.794;10.024;2023-12-20T22:12:43;7.70;76.20
24636;DHT22;12772;49.794;10.024;2023-12-20T22:16:45;7.70;76.40
24636;DHT22;12772;49.794;10.024;2023-12-20T22:20:47;7.50;76.30
24636;DHT22;12772;49.794;10.024;2023-12-20T22:24:49;7.40;76.10
24636;DHT22;12772;49.794;10.024;2023-12-20T22:28:51;7.70;76.50
24636;DHT22;12772;49.794;10.024;2023-12-20T22:32:53;7.80;76.50
24636;DHT22;12772;49.794;10.024;2023-12-20T22:36:55;7.50;76.30
24636;DHT22;12772;49.794;10.024;2023-12-20T22:40:57;7.40;76.20
24636;DHT22;12772;49.794;10.024;2023-12-20T22:44:59;7.80;76.60
24636;DHT22;12772;49.794;10.024;2023-12-20T22:49:01;7.70;76.70
24636;DHT22;12772;49.794;10.024;2023-12-20T22:53:03;7.70;76.60
24636;DHT22;12772;49.794;10.024;2023-12-20T22:57:05;7.30;76.00
24636;DHT22;12772;49.794;10.024;2023-12-20T23:01:07;7.80;76.50
24636;DHT22;12772;49.794;10.024;2023-12-20T23:05:09;7.50;76.10
24636;DHT22;12772;49.794;10.024;2023-12-20T23:09:11;7.70;76.20
24636;DHT22;12772;49.794;10.024;2023-12-20T23:13:13;7.80;76.50
24636;DHT22;12772;49.794;10.024;2023-12-20T23:17:17;8.20;76.80
24636;DHT22;12772;49.794;10.024;2023-12-20T23:21:19;7.80;76.60
24636;DHT22;12772;49.794;10.024;2023-12-20T23:25:21;7.50;76.30
24636;DHT22;12772;49.794;10.024;2023-12-20T23:29:23;7.90;76.30
24636;DHT22;12772;49.794;10.024;2023-12-20T23:33:25;7.40;76.30
24636;DHT22;12772;49.794;10.024;2023-12-20T23:37:27;7.50;76.50
24636;DHT22;12772;49.794;10.024;2023-12-20T23:41:29;7.70;76.70
24636;DHT22;12772;49.794;10.024;2023-12-20T23:45:31;7.80;76.90
24636;DHT22;12772;49.794;10.024;2023-12-20T23:49:34;7.30;77.20
24636;DHT22;12772;49.794;10.024;2023-12-20T23:53:36;7.70;78.40
24636;DHT22;12772;49.794;10.024;2023-12-20T23:57:38;7.60;78.50
